sensor_id;sensor_type;location;lat;lon;timestamp;P1;durP1;ratioP1;P2;durP2;ratioP2
73959;SDS011;62316;48.920;2.342;2023-05-07T00:02:06;2.00;;;1.67;;
73959;SDS011;62316;48.920;2.342;2023-05-07T00:04:32;2.00;;;1.00;;
73959;SDS011;62316;48.920;2.342;2023-05-07T00:07:01;2.33;;;2.33;;
73959;SDS011;62316;48.920;2.342;2023-05-07T00:09:27;2.00;;;2.00;;
73959;SDS011;62316;48.920;2.342;2023-05-07T00:11:52;2.33;;;1.33;;
73959;SDS011;62316;48.920;2.342;2023-05-07T00:14:18;2.00;;;2.00;;
73959;SDS011;62316;48.920;2.342;2023-05-07T00:16:43;3.33;;;2.00;;
73959;SDS011;62316;48.920;2.342;2023-05-07T00:19:09;1.67;;;1.67;;
73959;SDS011;62316;48.920;2.342;2023-05-07T00:21:34;0.67;;;0.67;;
73959;SDS011;62316;48.920;2.342;2023-05-07T00:23:59;2.00;;;2.00;;
73959;SDS011;62316;48.920;2.342;2023-05-07T00:26:25;3.00;;;3.00;;
73959;SDS011;62316;48.920;2.342;2023-05-07T00:28:50;3.00;;;1.00;;
73959;SDS011;62316;48.920;2.342;2023-05-07T00:31:15;5.33;;;2.00;;
73959;SDS011;62316;48.920;2.342;2023-05-07T00:33:41;2.00;;;2.00;;
73959;SDS011;62316;48.920;2.342;2023-05-07T00:36:06;4.00;;;3.00;;
73959;SDS011;62316;48.920;2.342;2023-05-07T00:38:32;3.00;;;1.33;;
73959;SDS011;62316;48.920;2.342;2023-05-07T00:40:57;2.33;;;2.33;;
73959;SDS011;62316;48.920;2.342;2023-05-07T00:43:23;3.00;;;1.00;;
73959;SDS011;62316;48.920;2.342;2023-05-07T00:45:48;2.00;;;2.00;;
73959;SDS011;62316;48.920;2.342;2023-05-07T00:48:14;4.00;;;2.00;;
73959;SDS011;62316;48.920;2.342;2023-05-07T00:50:40;2.33;;;2.33;;
73959;SDS011;62316;48.920;2.342;2023-05-07T00:55:56;2.67;;;2.00;;
73959;SDS011;62316;48.920;2.342;2023-05-07T00:58:33;1.00;;;1.00;;
73959;SDS011;62316;48.920;2.342;2023-05-07T01:00:59;2.00;;;2.00;;
73959;SDS011;62316;48.920;2.342;2023-05-07T01:03:24;2.33;;;2.33;;
73959;SDS011;62316;48.920;2.342;2023-05-07T01:05:50;1.00;;;1.00;;
73959;SDS011;62316;48.920;2.342;2023-05-07T01:08:17;1.00;;;1.00;;
73959;SDS011;62316;48.920;2.342;2023-05-07T01:10:43;1.67;;;1.67;;
73959;SDS011;62316;48.920;2.342;2023-05-07T01:13:09;0.67;;;0.67;;
73959;SDS011;62316;48.920;2.342;2023-05-07T01:15:35;0.67;;;0.67;;
73959;SDS011;62316;48.920;2.342;2023-05-07T01:18:01;0.00;;;0.00;;
73959;SDS011;62316;48.920;2.342;2023-05-07T01:20:27;1.33;;;1.00;;
73959;SDS011;62316;48.920;2.342;2023-05-07T01:22:53;2.00;;;1.33;;
73959;SDS011;62316;48.920;2.342;2023-05-07T01:25:18;1.33;;;1.33;;
73959;SDS011;62316;48.920;2.342;2023-05-07T01:27:44;0.33;;;0.33;;
73959;SDS011;62316;48.920;2.342;2023-05-07T01:30:09;0.00;;;0.00;;
73959;SDS011;62316;48.920;2.342;2023-05-07T01:32:48;0.67;;;0.67;;
73959;SDS011;62316;48.920;2.342;2023-05-07T01:35:27;1.00;;;1.00;;
73959;SDS011;62316;48.920;2.342;2023-05-07T01:37:54;1.00;;;1.00;;
73959;SDS011;62316;48.920;2.342;2023-05-07T01:40:20;0.00;;;0.00;;
73959;SDS011;62316;48.920;2.342;2023-05-07T01:42:46;0.00;;;0.00;;
73959;SDS011;62316;48.920;2.342;2023-05-07T01:45:13;2.00;;;1.00;;
73959;SDS011;62316;48.920;2.342;2023-05-07T01:47:38;2.67;;;1.00;;
73959;SDS011;62316;48.920;2.342;2023-05-07T01:50:05;0.67;;;0.00;;
73959;SDS011;62316;48.920;2.342;2023-05-07T01:52:32;1.00;;;1.00;;
73959;SDS011;62316;48.920;2.342;2023-05-07T01:54:58;0.33;;;0.33;;
73959;SDS011;62316;48.920;2.342;2023-05-07T01:57:23;1.00;;;1.00;;
73959;SDS011;62316;48.920;2.342;2023-05-07T01:59:49;5.00;;;1.33;;
73959;SDS011;62316;48.920;2.342;2023-05-07T02:02:15;0.00;;;0.00;;
73959;SDS011;62316;48.920;2.342;2023-05-07T02:04:40;1.00;;;1.00;;
73959;SDS011;62316;48.920;2.342;2023-05-07T02:07:05;0.67;;;0.67;;
73959;SDS011;62316;48.920;2.342;2023-05-07T02:09:31;1.00;;;1.00;;
73959;SDS011;62316;48.920;2.342;2023-05-07T02:11:56;1.00;;;0.67;;
73959;SDS011;62316;48.920;2.342;2023-05-07T02:17:11;1.00;;;1.00;;
73959;SDS011;62316;48.920;2.342;2023-05-07T02:20:08;2.33;;;1.00;;
73959;SDS011;62316;48.920;2.342;2023-05-07T02:25:44;1.00;;;1.00;;
73959;SDS011;62316;48.920;2.342;2023-05-07T02:28:10;1.33;;;1.33;;
73959;SDS011;62316;48.920;2.342;2023-05-07T02:30:36;4.00;;;2.33;;
73959;SDS011;62316;48.920;2.342;2023-05-07T02:33:02;1.33;;;1.33;;
73959;SDS011;62316;48.920;2.342;2023-05-07T02:35:28;2.00;;;2.00;;
73959;SDS011;62316;48.920;2.342;2023-05-07T02:37:53;1.00;;;1.00;;
73959;SDS011;62316;48.920;2.342;2023-05-07T02:40:19;1.00;;;1.00;;
73959;SDS011;62316;48.920;2.342;2023-05-07T02:42:44;1.00;;;1.00;;
73959;SDS011;62316;48.920;2.342;2023-05-07T02:45:10;4.00;;;3.33;;
73959;SDS011;62316;48.920;2.342;2023-05-07T02:47:35;2.00;;;2.00;;
73959;SDS011;62316;48.920;2.342;2023-05-07T02:50:01;1.67;;;1.67;;
73959;SDS011;62316;48.920;2.342;2023-05-07T02:52:26;2.67;;;2.00;;
73959;SDS011;62316;48.920;2.342;2023-05-07T02:54:52;2.00;;;2.00;;
73959;SDS011;62316;48.920;2.342;2023-05-07T02:57:17;3.00;;;3.00;;
73959;SDS011;62316;48.920;2.342;2023-05-07T02:59:42;3.33;;;3.00;;
73959;SDS011;62316;48.920;2.342;2023-05-07T03:02:08;1.67;;;1.67;;
73959;SDS011;62316;48.920;2.342;2023-05-07T03:04:33;4.00;;;3.00;;
73959;SDS011;62316;48.920;2.342;2023-05-07T03:06:59;5.00;;;2.00;;
73959;SDS011;62316;48.920;2.342;2023-05-07T03:09:24;4.00;;;4.00;;
73959;SDS011;62316;48.920;2.342;2023-05-07T03:11:50;6.00;;;5.00;;
73959;SDS011;62316;48.920;2.342;2023-05-07T03:14:15;5.00;;;4.67;;
73959;SDS011;62316;48.920;2.342;2023-05-07T03:16:40;5.33;;;5.33;;
73959;SDS011;62316;48.920;2.342;2023-05-07T03:19:05;5.00;;;4.67;;
73959;SDS011;62316;48.920;2.342;2023-05-07T03:21:31;5.00;;;5.00;;
73959;SDS011;62316;48.920;2.342;2023-05-07T03:23:58;3.67;;;3.67;;
73959;SDS011;62316;48.920;2.342;2023-05-07T03:29:56;5.00;;;4.00;;
73959;SDS011;62316;48.920;2.342;2023-05-07T03:32:21;4.00;;;3.00;;
73959;SDS011;62316;48.920;2.342;2023-05-07T03:34:47;5.00;;;4.00;;
73959;SDS011;62316;48.920;2.342;2023-05-07T03:37:12;2.33;;;2.33;;
73959;SDS011;62316;48.920;2.342;2023-05-07T03:39:37;8.67;;;4.00;;
73959;SDS011;62316;48.920;2.342;2023-05-07T03:42:03;6.67;;;3.33;;
73959;SDS011;62316;48.920;2.342;2023-05-07T03:44:28;4.00;;;2.67;;
73959;SDS011;62316;48.920;2.342;2023-05-07T03:46:57;2.67;;;2.00;;
73959;SDS011;62316;48.920;2.342;2023-05-07T03:49:32;2.67;;;2.00;;
73959;SDS011;62316;48.920;2.342;2023-05-07T03:52:20;5.33;;;2.00;;
73959;SDS011;62316;48.920;2.342;2023-05-07T03:54:49;1.67;;;1.67;;
73959;SDS011;62316;48.920;2.342;2023-05-07T03:57:15;1.00;;;1.00;;
73959;SDS011;62316;48.920;2.342;2023-05-07T03:59:40;0.33;;;0.33;;
73959;SDS011;62316;48.920;2.342;2023-05-07T04:02:05;1.00;;;0.00;;
73959;SDS011;62316;48.920;2.342;2023-05-07T04:04:31;0.00;;;0.00;;
73959;SDS011;62316;48.920;2.342;2023-05-07T04:06:57;3.00;;;1.00;;
73959;SDS011;62316;48.920;2.342;2023-05-07T04:09:24;1.00;;;1.00;;
73959;SDS011;62316;48.920;2.342;2023-05-07T04:11:50;0.67;;;0.67;;
73959;SDS011;62316;48.920;2.342;2023-05-07T04:14:15;0.33;;;0.00;;
73959;SDS011;62316;48.920;2.342;2023-05-07T04:16:41;1.00;;;1.00;;
73959;SDS011;62316;48.920;2.342;2023-05-07T04:19:06;1.00;;;1.00;;
73959;SDS011;62316;48.920;2.342;2023-05-07T04:21:31;1.00;;;1.00;;
73959;SDS011;62316;48.920;2.342;2023-05-07T04:23:57;1.00;;;1.00;;
73959;SDS011;62316;48.920;2.342;2023-05-07T04:26:22;0.00;;;0.00;;
73959;SDS011;62316;48.920;2.342;2023-05-07T04:28:49;0.00;;;0.00;;
73959;SDS011;62316;48.920;2.342;2023-05-07T04:31:14;0.00;;;0.00;;
73959;SDS011;62316;48.920;2.342;2023-05-07T04:33:40;4.67;;;3.33;;
73959;SDS011;62316;48.920;2.342;2023-05-07T04:36:05;1.00;;;1.00;;
73959;SDS011;62316;48.920;2.342;2023-05-07T04:38:31;2.00;;;1.67;;
73959;SDS011;62316;48.920;2.342;2023-05-07T04:40:57;0.67;;;0.67;;
73959;SDS011;62316;48.920;2.342;2023-05-07T04:43:30;1.33;;;1.33;;
73959;SDS011;62316;48.920;2.342;2023-05-07T04:45:55;1.00;;;0.00;;
73959;SDS011;62316;48.920;2.342;2023-05-07T04:48:21;1.00;;;0.00;;
73959;SDS011;62316;48.920;2.342;2023-05-07T04:50:47;1.00;;;1.00;;
73959;SDS011;62316;48.920;2.342;2023-05-07T04:53:13;1.00;;;1.00;;
73959;SDS011;62316;48.920;2.342;2023-05-07T04:55:38;1.00;;;1.00;;
73959;SDS011;62316;48.920;2.342;2023-05-07T04:58:03;0.67;;;0.67;;
73959;SDS011;62316;48.920;2.342;2023-05-07T05:00:29;0.67;;;0.67;;
73959;SDS011;62316;48.920;2.342;2023-05-07T05:09:24;2.33;;;1.00;;
73959;SDS011;62316;48.920;2.342;2023-05-07T05:11:49;0.00;;;0.00;;
73959;SDS011;62316;48.920;2.342;2023-05-07T05:14:14;1.00;;;1.00;;
73959;SDS011;62316;48.920;2.342;2023-05-07T05:16:40;1.00;;;1.00;;
73959;SDS011;62316;48.920;2.342;2023-05-07T05:19:05;0.00;;;0.00;;
73959;SDS011;62316;48.920;2.342;2023-05-07T05:21:31;0.67;;;0.67;;
73959;SDS011;62316;48.920;2.342;2023-05-07T05:23:56;0.67;;;0.67;;
73959;SDS011;62316;48.920;2.342;2023-05-07T05:26:22;0.67;;;0.33;;
73959;SDS011;62316;48.920;2.342;2023-05-07T05:28:47;2.00;;;1.00;;
73959;SDS011;62316;48.920;2.342;2023-05-07T05:31:12;1.00;;;1.00;;
73959;SDS011;62316;48.920;2.342;2023-05-07T05:33:39;0.00;;;0.00;;
73959;SDS011;62316;48.920;2.342;2023-05-07T05:36:05;0.33;;;0.33;;
73959;SDS011;62316;48.920;2.342;2023-05-07T05:38:31;4.00;;;2.67;;
73959;SDS011;62316;48.920;2.342;2023-05-07T05:40:56;1.33;;;1.33;;
73959;SDS011;62316;48.920;2.342;2023-05-07T05:43:22;2.00;;;2.00;;
73959;SDS011;62316;48.920;2.342;2023-05-07T05:45:47;1.67;;;1.00;;
73959;SDS011;62316;48.920;2.342;2023-05-07T05:48:12;0.33;;;0.33;;
73959;SDS011;62316;48.920;2.342;2023-05-07T05:50:38;2.00;;;2.00;;
73959;SDS011;62316;48.920;2.342;2023-05-07T05:53:03;2.00;;;2.00;;
73959;SDS011;62316;48.920;2.342;2023-05-07T05:55:29;2.33;;;2.33;;
73959;SDS011;62316;48.920;2.342;2023-05-07T05:57:55;2.00;;;2.00;;
73959;SDS011;62316;48.920;2.342;2023-05-07T06:00:21;2.33;;;1.00;;
73959;SDS011;62316;48.920;2.342;2023-05-07T06:02:47;2.00;;;2.00;;
73959;SDS011;62316;48.920;2.342;2023-05-07T06:05:13;1.67;;;1.67;;
73959;SDS011;62316;48.920;2.342;2023-05-07T06:07:38;3.33;;;3.00;;
73959;SDS011;62316;48.920;2.342;2023-05-07T06:10:04;2.33;;;2.33;;
73959;SDS011;62316;48.920;2.342;2023-05-07T06:12:30;4.00;;;3.00;;
73959;SDS011;62316;48.920;2.342;2023-05-07T06:14:55;1.00;;;1.00;;
73959;SDS011;62316;48.920;2.342;2023-05-07T06:17:21;2.00;;;1.00;;
73959;SDS011;62316;48.920;2.342;2023-05-07T06:19:46;2.00;;;2.00;;
73959;SDS011;62316;48.920;2.342;2023-05-07T06:22:11;2.00;;;0.67;;
73959;SDS011;62316;48.920;2.342;2023-05-07T06:24:37;3.00;;;1.67;;
73959;SDS011;62316;48.920;2.342;2023-05-07T06:27:02;1.33;;;1.33;;
73959;SDS011;62316;48.920;2.342;2023-05-07T06:29:28;1.00;;;1.00;;
73959;SDS011;62316;48.920;2.342;2023-05-07T06:31:56;2.00;;;2.00;;
73959;SDS011;62316;48.920;2.342;2023-05-07T06:34:21;1.00;;;1.00;;
73959;SDS011;62316;48.920;2.342;2023-05-07T06:36:47;4.33;;;4.33;;
73959;SDS011;62316;48.920;2.342;2023-05-07T06:39:12;1.00;;;1.00;;
73959;SDS011;62316;48.920;2.342;2023-05-07T06:41:37;1.67;;;1.67;;
73959;SDS011;62316;48.920;2.342;2023-05-07T06:44:04;0.00;;;0.00;;
73959;SDS011;62316;48.920;2.342;2023-05-07T06:46:29;0.67;;;0.67;;
73959;SDS011;62316;48.920;2.342;2023-05-07T06:48:55;0.00;;;0.00;;
73959;SDS011;62316;48.920;2.342;2023-05-07T06:51:21;1.33;;;0.33;;
73959;SDS011;62316;48.920;2.342;2023-05-07T06:53:47;0.00;;;0.00;;
73959;SDS011;62316;48.920;2.342;2023-05-07T06:56:12;2.00;;;1.00;;
73959;SDS011;62316;48.920;2.342;2023-05-07T06:58:37;1.33;;;1.33;;
73959;SDS011;62316;48.920;2.342;2023-05-07T07:01:03;5.00;;;4.33;;
73959;SDS011;62316;48.920;2.342;2023-05-07T07:03:29;1.00;;;1.00;;
73959;SDS011;62316;48.920;2.342;2023-05-07T07:05:55;0.00;;;0.00;;
73959;SDS011;62316;48.920;2.342;2023-05-07T07:08:21;0.00;;;0.00;;
73959;SDS011;62316;48.920;2.342;2023-05-07T07:10:47;4.00;;;4.00;;
73959;SDS011;62316;48.920;2.342;2023-05-07T07:13:13;1.00;;;1.00;;
73959;SDS011;62316;48.920;2.342;2023-05-07T07:15:41;1.33;;;1.33;;
73959;SDS011;62316;48.920;2.342;2023-05-07T07:18:06;2.00;;;1.00;;
73959;SDS011;62316;48.920;2.342;2023-05-07T07:20:32;2.00;;;2.00;;
73959;SDS011;62316;48.920;2.342;2023-05-07T07:22:57;8.00;;;5.67;;
73959;SDS011;62316;48.920;2.342;2023-05-07T07:25:23;5.00;;;4.00;;
73959;SDS011;62316;48.920;2.342;2023-05-07T07:27:48;2.00;;;2.00;;
73959;SDS011;62316;48.920;2.342;2023-05-07T07:30:14;1.67;;;1.67;;
73959;SDS011;62316;48.920;2.342;2023-05-07T07:32:40;5.00;;;5.00;;
73959;SDS011;62316;48.920;2.342;2023-05-07T07:35:05;4.33;;;4.33;;
73959;SDS011;62316;48.920;2.342;2023-05-07T07:37:31;3.33;;;2.33;;
73959;SDS011;62316;48.920;2.342;2023-05-07T07:39:56;0.33;;;0.33;;
73959;SDS011;62316;48.920;2.342;2023-05-07T07:42:22;2.00;;;2.00;;
73959;SDS011;62316;48.920;2.342;2023-05-07T07:44:47;2.00;;;2.00;;
73959;SDS011;62316;48.920;2.342;2023-05-07T07:47:13;1.00;;;1.00;;
73959;SDS011;62316;48.920;2.342;2023-05-07T07:49:38;1.33;;;1.33;;
73959;SDS011;62316;48.920;2.342;2023-05-07T07:52:04;1.00;;;1.00;;
73959;SDS011;62316;48.920;2.342;2023-05-07T07:54:29;1.67;;;1.67;;
73959;SDS011;62316;48.920;2.342;2023-05-07T07:56:55;2.67;;;2.67;;
73959;SDS011;62316;48.920;2.342;2023-05-07T07:59:20;2.00;;;2.00;;
73959;SDS011;62316;48.920;2.342;2023-05-07T08:01:45;1.33;;;1.33;;
73959;SDS011;62316;48.920;2.342;2023-05-07T08:04:13;2.00;;;2.00;;
73959;SDS011;62316;48.920;2.342;2023-05-07T08:06:38;3.33;;;3.33;;
73959;SDS011;62316;48.920;2.342;2023-05-07T08:09:03;1.33;;;1.33;;
73959;SDS011;62316;48.920;2.342;2023-05-07T08:11:29;2.00;;;2.00;;
73959;SDS011;62316;48.920;2.342;2023-05-07T08:13:54;2.33;;;2.33;;
73959;SDS011;62316;48.920;2.342;2023-05-07T08:16:20;2.00;;;2.00;;
73959;SDS011;62316;48.920;2.342;2023-05-07T08:18:45;2.00;;;2.00;;
73959;SDS011;62316;48.920;2.342;2023-05-07T08:21:11;3.00;;;2.00;;
73959;SDS011;62316;48.920;2.342;2023-05-07T08:23:36;2.67;;;1.67;;
73959;SDS011;62316;48.920;2.342;2023-05-07T08:26:02;2.00;;;2.00;;
73959;SDS011;62316;48.920;2.342;2023-05-07T08:28:27;1.00;;;1.00;;
73959;SDS011;62316;48.920;2.342;2023-05-07T08:30:53;2.33;;;2.33;;
73959;SDS011;62316;48.920;2.342;2023-05-07T08:33:18;2.33;;;2.33;;
73959;SDS011;62316;48.920;2.342;2023-05-07T08:35:43;2.00;;;2.00;;
73959;SDS011;62316;48.920;2.342;2023-05-07T08:38:09;0.67;;;0.67;;
73959;SDS011;62316;48.920;2.342;2023-05-07T08:40:36;1.00;;;1.00;;
73959;SDS011;62316;48.920;2.342;2023-05-07T08:43:03;1.67;;;1.67;;
73959;SDS011;62316;48.920;2.342;2023-05-07T08:45:30;1.33;;;1.33;;
73959;SDS011;62316;48.920;2.342;2023-05-07T08:47:58;2.00;;;2.00;;
73959;SDS011;62316;48.920;2.342;2023-05-07T08:50:25;3.00;;;3.00;;
73959;SDS011;62316;48.920;2.342;2023-05-07T08:52:50;2.33;;;1.00;;
73959;SDS011;62316;48.920;2.342;2023-05-07T08:55:16;1.67;;;1.67;;
73959;SDS011;62316;48.920;2.342;2023-05-07T08:57:41;1.00;;;1.00;;
73959;SDS011;62316;48.920;2.342;2023-05-07T09:00:07;0.67;;;0.67;;
73959;SDS011;62316;48.920;2.342;2023-05-07T09:02:33;1.67;;;0.67;;
73959;SDS011;62316;48.920;2.342;2023-05-07T09:05:00;1.00;;;1.00;;
73959;SDS011;62316;48.920;2.342;2023-05-07T09:07:25;2.33;;;1.33;;
73959;SDS011;62316;48.920;2.342;2023-05-07T09:09:51;2.33;;;2.33;;
73959;SDS011;62316;48.920;2.342;2023-05-07T09:12:17;2.00;;;1.33;;
73959;SDS011;62316;48.920;2.342;2023-05-07T09:18:48;3.00;;;3.00;;
73959;SDS011;62316;48.920;2.342;2023-05-07T09:21:17;1.00;;;1.00;;
73959;SDS011;62316;48.920;2.342;2023-05-07T09:23:43;2.33;;;2.33;;
73959;SDS011;62316;48.920;2.342;2023-05-07T09:26:08;2.67;;;2.67;;
73959;SDS011;62316;48.920;2.342;2023-05-07T09:28:44;2.00;;;2.00;;
73959;SDS011;62316;48.920;2.342;2023-05-07T09:31:11;3.33;;;3.33;;
73959;SDS011;62316;48.920;2.342;2023-05-07T09:33:37;18.75;;;17.50;;
73959;SDS011;62316;48.920;2.342;2023-05-07T09:36:04;3.00;;;3.00;;
73959;SDS011;62316;48.920;2.342;2023-05-07T09:38:31;4.67;;;3.67;;
73959;SDS011;62316;48.920;2.342;2023-05-07T09:43:34;2.67;;;2.67;;
73959;SDS011;62316;48.920;2.342;2023-05-07T09:46:07;2.33;;;2.00;;
73959;SDS011;62316;48.920;2.342;2023-05-07T09:48:42;5.00;;;5.00;;
73959;SDS011;62316;48.920;2.342;2023-05-07T09:51:25;5.00;;;5.00;;
73959;SDS011;62316;48.920;2.342;2023-05-07T09:53:53;8.67;;;8.00;;
73959;SDS011;62316;48.920;2.342;2023-05-07T09:56:19;4.33;;;4.33;;
73959;SDS011;62316;48.920;2.342;2023-05-07T09:58:46;5.33;;;5.00;;
73959;SDS011;62316;48.920;2.342;2023-05-07T10:01:12;3.67;;;3.67;;
73959;SDS011;62316;48.920;2.342;2023-05-07T10:03:39;3.67;;;3.67;;
73959;SDS011;62316;48.920;2.342;2023-05-07T10:06:05;6.33;;;5.00;;
73959;SDS011;62316;48.920;2.342;2023-05-07T10:08:32;3.67;;;3.67;;
73959;SDS011;62316;48.920;2.342;2023-05-07T10:10:58;5.00;;;5.00;;
73959;SDS011;62316;48.920;2.342;2023-05-07T10:13:24;4.00;;;4.00;;
73959;SDS011;62316;48.920;2.342;2023-05-07T10:15:50;3.00;;;3.00;;
73959;SDS011;62316;48.920;2.342;2023-05-07T10:18:16;4.00;;;4.00;;
73959;SDS011;62316;48.920;2.342;2023-05-07T10:20:41;5.67;;;5.00;;
73959;SDS011;62316;48.920;2.342;2023-05-07T10:23:08;8.00;;;6.67;;
73959;SDS011;62316;48.920;2.342;2023-05-07T10:25:38;7.33;;;7.33;;
73959;SDS011;62316;48.920;2.342;2023-05-07T10:28:07;10.00;;;10.00;;
73959;SDS011;62316;48.920;2.342;2023-05-07T10:33:13;10.67;;;10.67;;
73959;SDS011;62316;48.920;2.342;2023-05-07T10:35:40;8.00;;;8.00;;
73959;SDS011;62316;48.920;2.342;2023-05-07T10:38:07;11.00;;;9.00;;
73959;SDS011;62316;48.920;2.342;2023-05-07T10:40:32;10.00;;;10.00;;
73959;SDS011;62316;48.920;2.342;2023-05-07T10:43:01;8.00;;;8.00;;
73959;SDS011;62316;48.920;2.342;2023-05-07T10:45:29;6.00;;;5.00;;
73959;SDS011;62316;48.920;2.342;2023-05-07T10:54:19;10.67;;;8.67;;
73959;SDS011;62316;48.920;2.342;2023-05-07T10:56:45;10.00;;;7.00;;
73959;SDS011;62316;48.920;2.342;2023-05-07T11:01:55;17.00;;;12.00;;
73959;SDS011;62316;48.920;2.342;2023-05-07T11:04:27;6.67;;;5.67;;
73959;SDS011;62316;48.920;2.342;2023-05-07T11:15:05;7.67;;;7.67;;
73959;SDS011;62316;48.920;2.342;2023-05-07T11:17:54;8.33;;;8.33;;
73959;SDS011;62316;48.920;2.342;2023-05-07T11:20:20;14.00;;;12.33;;
73959;SDS011;62316;48.920;2.342;2023-05-07T11:23:08;7.33;;;6.33;;
73959;SDS011;62316;48.920;2.342;2023-05-07T11:25:35;7.67;;;7.67;;
73959;SDS011;62316;48.920;2.342;2023-05-07T11:28:07;8.00;;;7.00;;
73959;SDS011;62316;48.920;2.342;2023-05-07T11:30:35;5.00;;;5.00;;
73959;SDS011;62316;48.920;2.342;2023-05-07T11:33:00;9.67;;;8.33;;
73959;SDS011;62316;48.920;2.342;2023-05-07T11:35:29;9.67;;;9.67;;
73959;SDS011;62316;48.920;2.342;2023-05-07T11:37:59;5.33;;;5.33;;
73959;SDS011;62316;48.920;2.342;2023-05-07T11:40:25;10.00;;;9.00;;
73959;SDS011;62316;48.920;2.342;2023-05-07T11:42:50;9.00;;;8.67;;
73959;SDS011;62316;48.920;2.342;2023-05-07T11:45:22;7.67;;;7.67;;
73959;SDS011;62316;48.920;2.342;2023-05-07T11:47:49;7.67;;;6.67;;
73959;SDS011;62316;48.920;2.342;2023-05-07T11:50:15;5.67;;;5.67;;
73959;SDS011;62316;48.920;2.342;2023-05-07T11:52:49;7.67;;;7.33;;
73959;SDS011;62316;48.920;2.342;2023-05-07T11:55:17;12.00;;;11.00;;
73959;SDS011;62316;48.920;2.342;2023-05-07T11:57:43;9.67;;;7.33;;
73959;SDS011;62316;48.920;2.342;2023-05-07T12:00:10;10.33;;;10.33;;
73959;SDS011;62316;48.920;2.342;2023-05-07T12:02:36;9.67;;;8.67;;
73959;SDS011;62316;48.920;2.342;2023-05-07T12:05:01;11.67;;;11.67;;
73959;SDS011;62316;48.920;2.342;2023-05-07T12:07:27;11.67;;;10.00;;
73959;SDS011;62316;48.920;2.342;2023-05-07T12:10:11;6.67;;;6.67;;
73959;SDS011;62316;48.920;2.342;2023-05-07T12:12:38;11.67;;;11.67;;
73959;SDS011;62316;48.920;2.342;2023-05-07T12:15:05;11.00;;;9.33;;
73959;SDS011;62316;48.920;2.342;2023-05-07T12:17:30;16.75;;;16.75;;
73959;SDS011;62316;48.920;2.342;2023-05-07T12:19:56;10.67;;;9.33;;
73959;SDS011;62316;48.920;2.342;2023-05-07T12:22:21;9.00;;;9.00;;
73959;SDS011;62316;48.920;2.342;2023-05-07T12:24:48;10.00;;;6.33;;
73959;SDS011;62316;48.920;2.342;2023-05-07T12:27:15;10.00;;;8.00;;
73959;SDS011;62316;48.920;2.342;2023-05-07T12:29:44;9.00;;;9.00;;
73959;SDS011;62316;48.920;2.342;2023-05-07T12:32:13;11.00;;;11.00;;
73959;SDS011;62316;48.920;2.342;2023-05-07T12:34:40;14.00;;;9.67;;
73959;SDS011;62316;48.920;2.342;2023-05-07T12:37:05;14.33;;;13.00;;
73959;SDS011;62316;48.920;2.342;2023-05-07T12:39:30;14.00;;;13.33;;
73959;SDS011;62316;48.920;2.342;2023-05-07T12:41:57;9.67;;;9.67;;
73959;SDS011;62316;48.920;2.342;2023-05-07T12:44:30;11.33;;;11.33;;
73959;SDS011;62316;48.920;2.342;2023-05-07T12:47:03;8.67;;;8.67;;
73959;SDS011;62316;48.920;2.342;2023-05-07T12:49:28;11.67;;;11.00;;
73959;SDS011;62316;48.920;2.342;2023-05-07T12:51:54;11.67;;;10.33;;
73959;SDS011;62316;48.920;2.342;2023-05-07T12:54:34;12.00;;;12.00;;
73959;SDS011;62316;48.920;2.342;2023-05-07T12:57:01;12.67;;;11.33;;
73959;SDS011;62316;48.920;2.342;2023-05-07T12:59:31;10.00;;;10.00;;
73959;SDS011;62316;48.920;2.342;2023-05-07T13:02:06;13.33;;;12.33;;
73959;SDS011;62316;48.920;2.342;2023-05-07T13:04:32;13.50;;;12.75;;
73959;SDS011;62316;48.920;2.342;2023-05-07T13:06:58;15.50;;;15.50;;
73959;SDS011;62316;48.920;2.342;2023-05-07T13:09:24;14.00;;;11.67;;
73959;SDS011;62316;48.920;2.342;2023-05-07T13:11:49;15.33;;;13.67;;
73959;SDS011;62316;48.920;2.342;2023-05-07T13:14:15;26.00;;;23.00;;
73959;SDS011;62316;48.920;2.342;2023-05-07T13:16:40;21.25;;;19.25;;
73959;SDS011;62316;48.920;2.342;2023-05-07T13:19:06;17.33;;;13.00;;
73959;SDS011;62316;48.920;2.342;2023-05-07T13:21:31;45.00;;;35.50;;
73959;SDS011;62316;48.920;2.342;2023-05-07T13:23:57;15.25;;;14.25;;
73959;SDS011;62316;48.920;2.342;2023-05-07T13:26:23;16.00;;;15.33;;
73959;SDS011;62316;48.920;2.342;2023-05-07T13:28:49;12.67;;;12.67;;
73959;SDS011;62316;48.920;2.342;2023-05-07T13:31:17;10.67;;;10.67;;
73959;SDS011;62316;48.920;2.342;2023-05-07T13:33:42;9.00;;;9.00;;
73959;SDS011;62316;48.920;2.342;2023-05-07T13:36:08;8.00;;;8.00;;
73959;SDS011;62316;48.920;2.342;2023-05-07T13:38:34;9.00;;;6.67;;
73959;SDS011;62316;48.920;2.342;2023-05-07T13:41:00;4.67;;;3.33;;
73959;SDS011;62316;48.920;2.342;2023-05-07T13:43:25;4.33;;;4.33;;
73959;SDS011;62316;48.920;2.342;2023-05-07T13:45:50;4.33;;;4.33;;
73959;SDS011;62316;48.920;2.342;2023-05-07T13:48:16;3.33;;;3.33;;
73959;SDS011;62316;48.920;2.342;2023-05-07T13:50:41;3.33;;;3.33;;
73959;SDS011;62316;48.920;2.342;2023-05-07T13:53:07;4.67;;;4.67;;
73959;SDS011;62316;48.920;2.342;2023-05-07T13:55:33;5.67;;;5.67;;
73959;SDS011;62316;48.920;2.342;2023-05-07T13:57:59;6.00;;;6.00;;
73959;SDS011;62316;48.920;2.342;2023-05-07T14:00:26;4.00;;;4.00;;
73959;SDS011;62316;48.920;2.342;2023-05-07T14:02:52;2.67;;;2.67;;
73959;SDS011;62316;48.920;2.342;2023-05-07T14:05:17;4.00;;;4.00;;
73959;SDS011;62316;48.920;2.342;2023-05-07T14:07:43;6.00;;;6.00;;
73959;SDS011;62316;48.920;2.342;2023-05-07T14:10:09;6.00;;;6.00;;
73959;SDS011;62316;48.920;2.342;2023-05-07T14:12:35;7.33;;;7.00;;
73959;SDS011;62316;48.920;2.342;2023-05-07T14:15:01;6.00;;;6.00;;
73959;SDS011;62316;48.920;2.342;2023-05-07T14:17:26;6.00;;;6.00;;
73959;SDS011;62316;48.920;2.342;2023-05-07T14:19:52;6.67;;;6.67;;
73959;SDS011;62316;48.920;2.342;2023-05-07T14:22:19;7.67;;;6.67;;
73959;SDS011;62316;48.920;2.342;2023-05-07T14:24:48;4.00;;;4.00;;
73959;SDS011;62316;48.920;2.342;2023-05-07T14:27:14;9.00;;;9.00;;
73959;SDS011;62316;48.920;2.342;2023-05-07T14:29:40;9.67;;;8.33;;
73959;SDS011;62316;48.920;2.342;2023-05-07T14:32:05;8.67;;;8.67;;
73959;SDS011;62316;48.920;2.342;2023-05-07T14:34:31;7.00;;;7.00;;
73959;SDS011;62316;48.920;2.342;2023-05-07T14:36:56;7.00;;;7.00;;
73959;SDS011;62316;48.920;2.342;2023-05-07T14:39:22;15.67;;;13.33;;
73959;SDS011;62316;48.920;2.342;2023-05-07T14:41:47;10.33;;;7.33;;
73959;SDS011;62316;48.920;2.342;2023-05-07T14:44:13;9.00;;;9.00;;
73959;SDS011;62316;48.920;2.342;2023-05-07T14:46:38;9.00;;;9.00;;
73959;SDS011;62316;48.920;2.342;2023-05-07T14:49:03;11.33;;;10.33;;
73959;SDS011;62316;48.920;2.342;2023-05-07T14:51:29;8.67;;;8.67;;
73959;SDS011;62316;48.920;2.342;2023-05-07T14:57:28;7.00;;;5.33;;
73959;SDS011;62316;48.920;2.342;2023-05-07T14:59:53;4.00;;;4.00;;
73959;SDS011;62316;48.920;2.342;2023-05-07T15:02:19;3.67;;;3.00;;
73959;SDS011;62316;48.920;2.342;2023-05-07T15:04:45;10.67;;;8.00;;
73959;SDS011;62316;48.920;2.342;2023-05-07T15:07:14;4.00;;;3.00;;
73959;SDS011;62316;48.920;2.342;2023-05-07T15:09:43;2.00;;;2.00;;
73959;SDS011;62316;48.920;2.342;2023-05-07T15:12:09;3.00;;;3.00;;
73959;SDS011;62316;48.920;2.342;2023-05-07T15:14:35;7.33;;;6.00;;
73959;SDS011;62316;48.920;2.342;2023-05-07T15:17:00;2.67;;;2.67;;
73959;SDS011;62316;48.920;2.342;2023-05-07T15:19:26;1.67;;;1.67;;
73959;SDS011;62316;48.920;2.342;2023-05-07T15:21:54;1.33;;;0.00;;
73959;SDS011;62316;48.920;2.342;2023-05-07T15:24:28;3.00;;;3.00;;
73959;SDS011;62316;48.920;2.342;2023-05-07T15:26:54;2.00;;;2.00;;
73959;SDS011;62316;48.920;2.342;2023-05-07T15:29:19;3.00;;;3.00;;
73959;SDS011;62316;48.920;2.342;2023-05-07T15:31:45;3.00;;;3.00;;